sensor_id;sensor_type;location;lat;lon;timestamp;pressure;altitude;pressure_sealevel;temperature;humidity
59789;BME280;47353;51.614;5.530;2023-04-23T00:01:36;100694.88;;;7.31;100.00
59789;BME280;47353;51.614;5.530;2023-04-23T00:04:07;100688.78;;;7.29;100.00
59789;BME280;47353;51.614;5.530;2023-04-23T00:06:34;100685.97;;;7.24;100.00
59789;BME280;47353;51.614;5.530;2023-04-23T00:09:00;100680.97;;;7.21;100.00
59789;BME280;47353;51.614;5.530;2023-04-23T00:11:27;100684.50;;;7.16;100.00
59789;BME280;47353;51.614;5.530;2023-04-23T00:13:53;100675.91;;;7.13;100.00
59789;BME280;47353;51.614;5.530;2023-04-23T00:16:19;100676.19;;;7.11;100.00
59789;BME280;47353;51.614;5.530;2023-04-23T00:18:45;100666.78;;;7.07;100.00
59789;BME280;47353;51.614;5.530;2023-04-23T00:21:11;100672.88;;;7.09;100.00
59789;BME280;47353;51.614;5.530;2023-04-23T00:23:38;100665.94;;;7.07;100.00
59789;BME280;47353;51.614;5.530;2023-04-23T00:26:04;100663.19;;;7.07;100.00
59789;BME280;47353;51.614;5.530;2023-04-23T00:28:29;100661.81;;;7.04;100.00
59789;BME280;47353;51.614;5.530;2023-04-23T00:30:55;100665.41;;;7.05;100.00
59789;BME280;47353;51.614;5.530;2023-04-23T00:33:21;100662.16;;;7.13;100.00
59789;BME280;47353;51.614;5.530;2023-04-23T00:35:47;100647.28;;;7.09;100.00
59789;BME280;47353;51.614;5.530;2023-04-23T00:38:12;100660.25;;;7.13;100.00
59789;BME280;47353;51.614;5.530;2023-04-23T00:40:38;100654.41;;;7.10;100.00
59789;BME280;47353;51.614;5.530;2023-04-23T00:43:04;100641.97;;;7.02;100.00
59789;BME280;47353;51.614;5.530;2023-04-23T00:45:31;100642.75;;;6.98;100.00
59789;BME280;47353;51.614;5.530;2023-04-23T00:47:57;100639.91;;;6.93;100.00
59789;BME280;47353;51.614;5.530;2023-04-23T00:50:22;100643.50;;;6.93;100.00
59789;BME280;47353;51.614;5.530;2023-04-23T00:52:48;100646.34;;;6.98;100.00
59789;BME280;47353;51.614;5.530;2023-04-23T00:55:13;100640.25;;;6.96;100.00
59789;BME280;47353;51.614;5.530;2023-04-23T00:57:39;100633.59;;;6.92;100.00
59789;BME280;47353;51.614;5.530;2023-04-23T01:00:05;100641.59;;;6.94;100.00
59789;BME280;47353;51.614;5.530;2023-04-23T01:02:33;100639.13;;;6.92;100.00
59789;BME280;47353;51.614;5.530;2023-04-23T01:05:00;100633.41;;;6.99;100.00
59789;BME280;47353;51.614;5.530;2023-04-23T01:07:27;100621.81;;;6.97;100.00
59789;BME280;47353;51.614;5.530;2023-04-23T01:09:52;100629.31;;;7.01;100.00
59789;BME280;47353;51.614;5.530;2023-04-23T01:12:18;100628.78;;;7.04;100.00
59789;BME280;47353;51.614;5.530;2023-04-23T01:14:43;100624.66;;;7.07;100.00
59789;BME280;47353;51.614;5.530;2023-04-23T01:17:10;100621.66;;;7.08;100.00
59789;BME280;47353;51.614;5.530;2023-04-23T01:19:36;100620.88;;;7.13;100.00
59789;BME280;47353;51.614;5.530;2023-04-23T01:22:07;100612.34;;;7.09;100.00
59789;BME280;47353;51.614;5.530;2023-04-23T01:24:32;100608.00;;;7.18;100.00
59789;BME280;47353;51.614;5.530;2023-04-23T01:26:58;100606.97;;;7.24;100.00
59789;BME280;47353;51.614;5.530;2023-04-23T01:29:24;100610.19;;;7.16;100.00
59789;BME280;47353;51.614;5.530;2023-04-23T01:31:50;100609.06;;;7.12;100.00
59789;BME280;47353;51.614;5.530;2023-04-23T01:34:16;100614.56;;;7.12;100.00
59789;BME280;47353;51.614;5.530;2023-04-23T01:36:42;100616.69;;;7.05;100.00
59789;BME280;47353;51.614;5.530;2023-04-23T01:39:08;100607.34;;;7.06;100.00
59789;BME280;47353;51.614;5.530;2023-04-23T01:41:34;100604.00;;;7.04;100.00
59789;BME280;47353;51.614;5.530;2023-04-23T01:44:00;100609.53;;;7.04;100.00
59789;BME280;47353;51.614;5.530;2023-04-23T01:46:26;100606.38;;;6.96;100.00
59789;BME280;47353;51.614;5.530;2023-04-23T01:48:52;100603.44;;;7.02;100.00
59789;BME280;47353;51.614;5.530;2023-04-23T01:51:18;100604.28;;;7.03;100.00
59789;BME280;47353;51.614;5.530;2023-04-23T01:53:43;100607.34;;;7.06;100.00
59789;BME280;47353;51.614;5.530;2023-04-23T01:56:09;100605.38;;;7.02;100.00
59789;BME280;47353;51.614;5.530;2023-04-23T01:58:34;100604.28;;;7.03;100.00
59789;BME280;47353;51.614;5.530;2023-04-23T02:01:00;100597.06;;;6.97;100.00
59789;BME280;47353;51.614;5.530;2023-04-23T02:03:27;100602.31;;;6.98;100.00
59789;BME280;47353;51.614;5.530;2023-04-23T02:05:54;100599.63;;;7.03;100.00
59789;BME280;47353;51.614;5.530;2023-04-23T02:08:20;100598.13;;;6.96;100.00
59789;BME280;47353;51.614;5.530;2023-04-23T02:10:46;100599.63;;;7.03;100.00
59789;BME280;47353;51.614;5.530;2023-04-23T02:13:11;100595.69;;;6.99;100.00
59789;BME280;47353;51.614;5.530;2023-04-23T02:15:37;100583.31;;;6.97;100.00
59789;BME280;47353;51.614;5.530;2023-04-23T02:18:03;100587.50;;;7.04;100.00
59789;BME280;47353;51.614;5.530;2023-04-23T02:20:28;100588.81;;;6.97;100.00
59789;BME280;47353;51.614;5.530;2023-04-23T02:22:54;100589.59;;;6.92;100.00
59789;BME280;47353;51.614;5.530;2023-04-23T02:25:19;100585.22;;;6.96;100.00
59789;BME280;47353;51.614;5.530;2023-04-23T02:27:47;100584.59;;;6.89;100.00
59789;BME280;47353;51.614;5.530;2023-04-23T02:30:13;100584.13;;;6.97;100.00
59789;BME280;47353;51.614;5.530;2023-04-23T02:32:38;100573.09;;;6.97;100.00
59789;BME280;47353;51.614;5.530;2023-04-23T02:35:05;100584.13;;;6.97;100.00
59789;BME280;47353;51.614;5.530;2023-04-23T02:37:34;100577.47;;;6.93;100.00
59789;BME280;47353;51.614;5.530;2023-04-23T02:39:59;100585.34;;;7.06;100.00
59789;BME280;47353;51.614;5.530;2023-04-23T02:42:25;100580.88;;;7.00;100.00
59789;BME280;47353;51.614;5.530;2023-04-23T02:44:51;100577.38;;;7.10;100.00
59789;BME280;47353;51.614;5.530;2023-04-23T02:47:16;100575.72;;;7.09;100.00
59789;BME280;47353;51.614;5.530;2023-04-23T02:49:41;100592.28;;;7.14;100.00
59789;BME280;47353;51.614;5.530;2023-04-23T02:52:07;100578.22;;;7.10;100.00
59789;BME280;47353;51.614;5.530;2023-04-23T02:54:33;100581.00;;;7.15;100.00
59789;BME280;47353;51.614;5.530;2023-04-23T02:56:58;100586.78;;;7.14;100.00
59789;BME280;47353;51.614;5.530;2023-04-23T02:59:24;100579.91;;;7.16;100.00
59789;BME280;47353;51.614;5.530;2023-04-23T03:01:49;100590.66;;;7.18;100.00
59789;BME280;47353;51.614;5.530;2023-04-23T03:04:16;100586.25;;;7.17;100.00
59789;BME280;47353;51.614;5.530;2023-04-23T03:06:42;100578.31;;;7.20;100.00
59789;BME280;47353;51.614;5.530;2023-04-23T03:09:07;100584.94;;;7.24;100.00
59789;BME280;47353;51.614;5.530;2023-04-23T03:11:33;100584.47;;;7.32;100.00
59789;BME280;47353;51.614;5.530;2023-04-23T03:13:58;100581.41;;;7.29;100.00
59789;BME280;47353;51.614;5.530;2023-04-23T03:16:26;100579.25;;;7.36;100.00
59789;BME280;47353;51.614;5.530;2023-04-23T03:18:52;100575.16;;;7.38;100.00
59789;BME280;47353;51.614;5.530;2023-04-23T03:21:17;100574.63;;;7.41;100.00
59789;BME280;47353;51.614;5.530;2023-04-23T03:23:42;100568.66;;;7.49;100.00
59789;BME280;47353;51.614;5.530;2023-04-23T03:26:08;100565.59;;;7.46;100.00
59789;BME280;47353;51.614;5.530;2023-04-23T03:28:33;100561.72;;;7.47;100.00
59789;BME280;47353;51.614;5.530;2023-04-23T03:30:59;100560.16;;;7.56;100.00
59789;BME280;47353;51.614;5.530;2023-04-23T03:33:24;100558.72;;;7.48;100.00
59789;BME280;47353;51.614;5.530;2023-04-23T03:35:50;100562.53;;;7.42;100.00
59789;BME280;47353;51.614;5.530;2023-04-23T03:38:15;100554.84;;;7.44;100.00
59789;BME280;47353;51.614;5.530;2023-04-23T03:40:41;100566.13;;;7.43;100.00
59789;BME280;47353;51.614;5.530;2023-04-23T03:43:06;100556.22;;;7.42;100.00
59789;BME280;47353;51.614;5.530;2023-04-23T03:45:31;100555.41;;;7.46;100.00
59789;BME280;47353;51.614;5.530;2023-04-23T03:47:57;100555.69;;;7.45;100.00
59789;BME280;47353;51.614;5.530;2023-04-23T03:50:22;100565.31;;;7.47;100.00
59789;BME280;47353;51.614;5.530;2023-04-23T03:52:47;100562.03;;;7.50;100.00
59789;BME280;47353;51.614;5.530;2023-04-23T03:55:13;100544.66;;;7.45;100.00
59789;BME280;47353;51.614;5.530;2023-04-23T03:57:38;100555.84;;;7.65;100.00
59789;BME280;47353;51.614;5.530;2023-04-23T04:00:05;100559.94;;;7.62;100.00
59789;BME280;47353;51.614;5.530;2023-04-23T04:02:36;100553.63;;;7.67;100.00
59789;BME280;47353;51.614;5.530;2023-04-23T04:05:02;100548.94;;;7.67;100.00
59789;BME280;47353;51.614;5.530;2023-04-23T04:07:27;100549.53;;;7.69;100.00
59789;BME280;47353;51.614;5.530;2023-04-23T04:09:53;100555.56;;;7.71;100.00
59789;BME280;47353;51.614;5.530;2023-04-23T04:12:19;100560.03;;;7.77;100.00
59789;BME280;47353;51.614;5.530;2023-04-23T04:14:44;100565.00;;;7.75;100.00
59789;BME280;47353;51.614;5.530;2023-04-23T04:17:10;100562.25;;;7.75;100.00
59789;BME280;47353;51.614;5.530;2023-04-23T04:19:36;100561.66;;;7.73;100.00
59789;BME280;47353;51.614;5.530;2023-04-23T04:22:02;100568.88;;;7.79;100.00
59789;BME280;47353;51.614;5.530;2023-04-23T04:24:28;100565.00;;;7.80;100.00
59789;BME280;47353;51.614;5.530;2023-04-23T04:26:57;100575.25;;;7.85;100.00
59789;BME280;47353;51.614;5.530;2023-04-23T04:29:24;100570.28;;;7.82;100.00
59789;BME280;47353;51.614;5.530;2023-04-23T04:31:50;100565.25;;;7.79;100.00
59789;BME280;47353;51.614;5.530;2023-04-23T04:34:16;100572.50;;;7.85;100.00
59789;BME280;47353;51.614;5.530;2023-04-23T04:36:42;100573.56;;;7.84;100.00
59789;BME280;47353;51.614;5.530;2023-04-23T04:39:07;100576.06;;;7.85;100.00
59789;BME280;47353;51.614;5.530;2023-04-23T04:41:33;100572.78;;;7.88;100.00
59789;BME280;47353;51.614;5.530;2023-04-23T04:44:00;100564.78;;;7.87;100.00
59789;BME280;47353;51.614;5.530;2023-04-23T04:46:25;100571.97;;;7.88;100.00
59789;BME280;47353;51.614;5.530;2023-04-23T04:48:53;100569.22;;;7.88;100.00
59789;BME280;47353;51.614;5.530;2023-04-23T04:51:19;100570.56;;;7.85;100.00
59789;BME280;47353;51.614;5.530;2023-04-23T04:53:44;100569.75;;;7.85;100.00
59789;BME280;47353;51.614;5.530;2023-04-23T04:56:10;100565.00;;;7.80;100.00
59789;BME280;47353;51.614;5.530;2023-04-23T04:58:35;100558.69;;;7.80;100.00
59789;BME280;47353;51.614;5.530;2023-04-23T05:01:01;100566.38;;;7.78;100.00
59789;BME280;47353;51.614;5.530;2023-04-23T05:03:26;100558.63;;;7.75;100.00
59789;BME280;47353;51.614;5.530;2023-04-23T05:05:52;100569.94;;;7.73;100.00
59789;BME280;47353;51.614;5.530;2023-04-23T05:08:21;100566.88;;;7.70;100.00
59789;BME280;47353;51.614;5.530;2023-04-23T05:10:46;100576.81;;;7.71;100.00
59789;BME280;47353;51.614;5.530;2023-04-23T05:13:12;100567.44;;;7.72;100.00
59789;BME280;47353;51.614;5.530;2023-04-23T05:15:37;100575.97;;;7.70;100.00
59789;BME280;47353;51.614;5.530;2023-04-23T05:18:05;100574.06;;;7.76;100.00
59789;BME280;47353;51.614;5.530;2023-04-23T05:20:31;100573.56;;;7.84;100.00
59789;BME280;47353;51.614;5.530;2023-04-23T05:22:56;100565.88;;;7.86;100.00
59789;BME280;47353;51.614;5.530;2023-04-23T05:25:23;100565.34;;;7.89;100.00
59789;BME280;47353;51.614;5.530;2023-04-23T05:27:49;100572.84;;;7.98;100.00
59789;BME280;47353;51.614;5.530;2023-04-23T05:30:15;100576.75;;;8.07;100.00
59789;BME280;47353;51.614;5.530;2023-04-23T05:32:41;100571.03;;;8.19;100.00
59789;BME280;47353;51.614;5.530;2023-04-23T05:35:07;100583.00;;;8.34;100.00
59789;BME280;47353;51.614;5.530;2023-04-23T05:37:32;100580.59;;;8.48;100.00
59789;BME280;47353;51.614;5.530;2023-04-23T05:39:58;100580.06;;;8.61;100.00
59789;BME280;47353;51.614;5.530;2023-04-23T05:42:23;100574.56;;;8.61;100.00
59789;BME280;47353;51.614;5.530;2023-04-23T05:44:49;100577.34;;;8.66;100.00
59789;BME280;47353;51.614;5.530;2023-04-23T05:47:14;100578.19;;;8.72;100.00
59789;BME280;47353;51.614;5.530;2023-04-23T05:49:40;100575.97;;;8.74;100.00
59789;BME280;47353;51.614;5.530;2023-04-23T05:52:05;100572.13;;;8.75;100.00
59789;BME280;47353;51.614;5.530;2023-04-23T05:54:31;100569.34;;;8.75;100.00
59789;BME280;47353;51.614;5.530;2023-04-23T05:56:56;100566.06;;;8.78;100.00
59789;BME280;47353;51.614;5.530;2023-04-23T05:59:22;100564.16;;;8.88;100.00
59789;BME280;47353;51.614;5.530;2023-04-23T06:01:48;100571.91;;;8.96;100.00
59789;BME280;47353;51.614;5.530;2023-04-23T06:04:14;100566.69;;;9.05;100.00
59789;BME280;47353;51.614;5.530;2023-04-23T06:06:44;100558.13;;;9.16;100.00
59789;BME280;47353;51.614;5.530;2023-04-23T06:09:09;100566.72;;;9.40;100.00
59789;BME280;47353;51.614;5.530;2023-04-23T06:11:35;100568.66;;;9.54;100.00
59789;BME280;47353;51.614;5.530;2023-04-23T06:14:01;100565.56;;;9.81;100.00
59789;BME280;47353;51.614;5.530;2023-04-23T06:16:27;100562.75;;;10.06;100.00
59789;BME280;47353;51.614;5.530;2023-04-23T06:18:52;100561.09;;;10.20;100.00
59789;BME280;47353;51.614;5.530;2023-04-23T06:21:20;100547.78;;;10.37;100.00
59789;BME280;47353;51.614;5.530;2023-04-23T06:23:46;100549.03;;;10.60;100.00
59789;BME280;47353;51.614;5.530;2023-04-23T06:26:12;100556.44;;;10.79;100.00
59789;BME280;47353;51.614;5.530;2023-04-23T06:28:37;100553.97;;;11.16;100.00
59789;BME280;47353;51.614;5.530;2023-04-23T06:31:03;100550.53;;;11.34;100.00
59789;BME280;47353;51.614;5.530;2023-04-23T06:33:30;100550.06;;;11.56;100.00
59789;BME280;47353;51.614;5.530;2023-04-23T06:35:55;100541.25;;;11.83;100.00
59789;BME280;47353;51.614;5.530;2023-04-23T06:38:20;100539.75;;;12.19;100.00
59789;BME280;47353;51.614;5.530;2023-04-23T06:40:47;100541.28;;;12.30;100.00
59789;BME280;47353;51.614;5.530;2023-04-23T06:43:12;100544.59;;;12.55;100.00
59789;BME280;47353;51.614;5.530;2023-04-23T06:45:39;100541.72;;;12.60;99.31
59789;BME280;47353;51.614;5.530;2023-04-23T06:48:04;100545.00;;;12.86;98.52
59789;BME280;47353;51.614;5.530;2023-04-23T06:50:30;100546.44;;;13.20;96.21
59789;BME280;47353;51.614;5.530;2023-04-23T06:52:55;100542.47;;;13.26;95.98
59789;BME280;47353;51.614;5.530;2023-04-23T06:55:21;100540.16;;;13.33;91.96
59789;BME280;47353;51.614;5.530;2023-04-23T06:57:51;100527.16;;;13.61;92.31
59789;BME280;47353;51.614;5.530;2023-04-23T07:00:16;100537.19;;;13.76;91.30
59789;BME280;47353;51.614;5.530;2023-04-23T07:02:42;100532.81;;;14.02;88.90
59789;BME280;47353;51.614;5.530;2023-04-23T07:05:08;100542.53;;;14.18;84.35
59789;BME280;47353;51.614;5.530;2023-04-23T07:07:34;100543.13;;;14.15;84.99
59789;BME280;47353;51.614;5.530;2023-04-23T07:10:01;100537.78;;;14.18;83.74
59789;BME280;47353;51.614;5.530;2023-04-23T07:12:28;100535.66;;;14.42;84.01
59789;BME280;47353;51.614;5.530;2023-04-23T07:14:53;100529.16;;;14.33;82.73
59789;BME280;47353;51.614;5.530;2023-04-23T07:17:19;100538.03;;;14.49;81.38
59789;BME280;47353;51.614;5.530;2023-04-23T07:19:44;100518.41;;;14.67;83.07
59789;BME280;47353;51.614;5.530;2023-04-23T07:22:09;100527.88;;;14.80;83.08
59789;BME280;47353;51.614;5.530;2023-04-23T07:24:35;100531.22;;;15.04;80.02
59789;BME280;47353;51.614;5.530;2023-04-23T07:27:00;100528.28;;;15.23;79.12
59789;BME280;47353;51.614;5.530;2023-04-23T07:29:27;100532.06;;;15.40;75.43
59789;BME280;47353;51.614;5.530;2023-04-23T07:31:52;100531.97;;;15.45;76.59
59789;BME280;47353;51.614;5.530;2023-04-23T07:34:17;100530.97;;;15.72;75.21
59789;BME280;47353;51.614;5.530;2023-04-23T07:36:43;100539.53;;;15.97;73.15
59789;BME280;47353;51.614;5.530;2023-04-23T07:39:08;100532.69;;;16.12;71.37
59789;BME280;47353;51.614;5.530;2023-04-23T07:41:34;100526.91;;;16.39;72.25
59789;BME280;47353;51.614;5.530;2023-04-23T07:44:00;100526.38;;;16.67;71.81
59789;BME280;47353;51.614;5.530;2023-04-23T07:46:26;100530.03;;;16.94;70.91
59789;BME280;47353;51.614;5.530;2023-04-23T07:48:51;100520.84;;;17.02;68.48
59789;BME280;47353;51.614;5.530;2023-04-23T07:51:17;100524.81;;;17.18;67.01
59789;BME280;47353;51.614;5.530;2023-04-23T07:53:43;100519.06;;;17.06;66.15
59789;BME280;47353;51.614;5.530;2023-04-23T07:56:08;100518.56;;;17.38;66.04
59789;BME280;47353;51.614;5.530;2023-04-23T07:58:34;100512.88;;;17.97;66.71
59789;BME280;47353;51.614;5.530;2023-04-23T08:01:01;100509.81;;;18.28;63.66
59789;BME280;47353;51.614;5.530;2023-04-23T08:03:27;100513.50;;;18.11;59.97
59789;BME280;47353;51.614;5.530;2023-04-23T08:05:52;100516.75;;;18.22;61.00
59789;BME280;47353;51.614;5.530;2023-04-23T08:08:18;100514.88;;;18.43;60.15
59789;BME280;47353;51.614;5.530;2023-04-23T08:10:44;100513.69;;;18.53;60.15
59789;BME280;47353;51.614;5.530;2023-04-23T08:13:10;100507.63;;;18.71;59.59
59789;BME280;47353;51.614;5.530;2023-04-23T08:15:36;100505.47;;;18.77;56.96
59789;BME280;47353;51.614;5.530;2023-04-23T08:18:02;100501.19;;;18.42;58.00
59789;BME280;47353;51.614;5.530;2023-04-23T08:20:28;100497.34;;;18.55;61.68
59789;BME280;47353;51.614;5.530;2023-04-23T08:22:53;100503.44;;;19.27;58.77
59789;BME280;47353;51.614;5.530;2023-04-23T08:25:19;100512.63;;;19.36;55.81
59789;BME280;47353;51.614;5.530;2023-04-23T08:27:45;100506.28;;;19.80;53.82
59789;BME280;47353;51.614;5.530;2023-04-23T08:30:11;100503.19;;;20.06;55.29
59789;BME280;47353;51.614;5.530;2023-04-23T08:32:40;100502.66;;;20.36;52.67
59789;BME280;47353;51.614;5.530;2023-04-23T08:35:06;100497.25;;;20.91;50.91
59789;BME280;47353;51.614;5.530;2023-04-23T08:37:32;100491.75;;;21.07;47.91
59789;BME280;47353;51.614;5.530;2023-04-23T08:39:59;100495.75;;;20.70;48.66
59789;BME280;47353;51.614;5.530;2023-04-23T08:42:52;100491.03;;;21.50;49.56
59789;BME280;47353;51.614;5.530;2023-04-23T08:45:20;100493.56;;;21.67;46.08
59789;BME280;47353;51.614;5.530;2023-04-23T08:47:46;100488.13;;;22.32;46.97
59789;BME280;47353;51.614;5.530;2023-04-23T08:50:15;100493.97;;;22.39;44.94
59789;BME280;47353;51.614;5.530;2023-04-23T08:52:46;100486.84;;;22.45;45.19
59789;BME280;47353;51.614;5.530;2023-04-23T08:55:12;100485.94;;;22.26;43.45
59789;BME280;47353;51.614;5.530;2023-04-23T08:57:40;100482.84;;;22.31;43.42
59789;BME280;47353;51.614;5.530;2023-04-23T09:00:07;100493.41;;;22.65;42.13
59789;BME280;47353;51.614;5.530;2023-04-23T09:02:44;100483.66;;;22.47;41.72
59789;BME280;47353;51.614;5.530;2023-04-23T09:05:11;100489.13;;;22.24;43.09
59789;BME280;47353;51.614;5.530;2023-04-23T09:07:37;100487.44;;;21.92;42.31
59789;BME280;47353;51.614;5.530;2023-04-23T09:10:04;100483.91;;;21.95;42.83
59789;BME280;47353;51.614;5.530;2023-04-23T09:12:30;100481.56;;;21.70;44.84
59789;BME280;47353;51.614;5.530;2023-04-23T09:14:57;100488.53;;;21.32;43.23
59789;BME280;47353;51.614;5.530;2023-04-23T09:17:27;100484.88;;;21.60;43.34
59789;BME280;47353;51.614;5.530;2023-04-23T09:19:53;100488.41;;;21.29;43.19
59789;BME280;47353;51.614;5.530;2023-04-23T09:22:49;100484.28;;;21.38;43.09
59789;BME280;47353;51.614;5.530;2023-04-23T09:25:19;100478.38;;;20.92;42.92
59789;BME280;47353;51.614;5.530;2023-04-23T09:27:46;100478.03;;;21.05;42.86
59789;BME280;47353;51.614;5.530;2023-04-23T09:30:12;100471.59;;;20.81;43.68
59789;BME280;47353;51.614;5.530;2023-04-23T09:32:40;100478.44;;;20.56;43.21
59789;BME280;47353;51.614;5.530;2023-04-23T09:35:11;100473.13;;;21.02;42.94
59789;BME280;47353;51.614;5.530;2023-04-23T09:37:40;100478.28;;;21.40;42.12
59789;BME280;47353;51.614;5.530;2023-04-23T09:40:06;100465.56;;;22.32;40.24
59789;BME280;47353;51.614;5.530;2023-04-23T09:42:35;100464.72;;;22.78;38.31
59789;BME280;47353;51.614;5.530;2023-04-23T09:45:06;100452.50;;;23.44;36.70
59789;BME280;47353;51.614;5.530;2023-04-23T09:47:38;100454.19;;;23.67;36.49
59789;BME280;47353;51.614;5.530;2023-04-23T09:50:03;100463.34;;;23.61;34.96
59789;BME280;47353;51.614;5.530;2023-04-23T09:52:33;100460.09;;;24.00;35.07
59789;BME280;47353;51.614;5.530;2023-04-23T09:55:03;100450.47;;;23.63;34.65
59789;BME280;47353;51.614;5.530;2023-04-23T09:57:34;100455.31;;;22.90;36.50
59789;BME280;47353;51.614;5.530;2023-04-23T10:00:14;100440.31;;;23.05;36.27
59789;BME280;47353;51.614;5.530;2023-04-23T10:02:47;100449.38;;;22.14;36.46
59789;BME280;47353;51.614;5.530;2023-04-23T10:05:18;100454.34;;;21.06;37.95
59789;BME280;47353;51.614;5.530;2023-04-23T10:07:45;100442.34;;;20.58;38.64
59789;BME280;47353;51.614;5.530;2023-04-23T10:10:16;100436.53;;;19.82;40.97
59789;BME280;47353;51.614;5.530;2023-04-23T10:12:42;100439.88;;;19.31;41.04
59789;BME280;47353;51.614;5.530;2023-04-23T10:15:09;100438.75;;;18.91;42.52
59789;BME280;47353;51.614;5.530;2023-04-23T10:17:36;100435.72;;;18.75;42.85
59789;BME280;47353;51.614;5.530;2023-04-23T10:20:02;100432.16;;;18.87;43.71
59789;BME280;47353;51.614;5.530;2023-04-23T10:22:28;100424.47;;;18.96;43.77
59789;BME280;47353;51.614;5.530;2023-04-23T10:24:56;100435.75;;;19.08;45.03
59789;BME280;47353;51.614;5.530;2023-04-23T10:27:27;100430.13;;;19.49;44.00
59789;BME280;47353;51.614;5.530;2023-04-23T10:29:53;100423.81;;;20.09;43.81
59789;BME280;47353;51.614;5.530;2023-04-23T10:32:20;100421.13;;;20.48;41.79
59789;BME280;47353;51.614;5.530;2023-04-23T10:34:45;100430.13;;;19.94;43.09
59789;BME280;47353;51.614;5.530;2023-04-23T10:37:13;100419.66;;;19.82;44.26
59789;BME280;47353;51.614;5.530;2023-04-23T10:39:42;100431.56;;;20.24;42.91
59789;BME280;47353;51.614;5.530;2023-04-23T10:42:08;100425.34;;;20.42;42.31
59789;BME280;47353;51.614;5.530;2023-04-23T10:44:38;100409.47;;;20.34;42.77
59789;BME280;47353;51.614;5.530;2023-04-23T10:47:04;100415.94;;;20.02;43.97
59789;BME280;47353;51.614;5.530;2023-04-23T10:49:32;100415.88;;;19.54;45.29
59789;BME280;47353;51.614;5.530;2023-04-23T10:52:08;100408.59;;;19.41;47.10
59789;BME280;47353;51.614;5.530;2023-04-23T10:54:34;100399.03;;;19.21;45.70
59789;BME280;47353;51.614;5.530;2023-04-23T10:57:04;100400.50;;;19.19;46.27
59789;BME280;47353;51.614;5.530;2023-04-23T10:59:32;100407.09;;;19.23;46.14
59789;BME280;47353;51.614;5.530;2023-04-23T11:02:04;100402.09;;;19.08;46.37
59789;BME280;47353;51.614;5.530;2023-04-23T11:04:32;100399.13;;;19.25;45.83
59789;BME280;47353;51.614;5.530;2023-04-23T11:07:08;100394.16;;;19.87;46.58
59789;BME280;47353;51.614;5.530;2023-04-23T11:12:08;100378.97;;;20.36;43.30
59789;BME280;47353;51.614;5.530;2023-04-23T11:14:41;100372.41;;;20.44;42.60
59789;BME280;47353;51.614;5.530;2023-04-23T11:17:11;100384.00;;;20.07;44.20
59789;BME280;47353;51.614;5.530;2023-04-23T11:19:38;100367.13;;;19.82;45.12
59789;BME280;47353;51.614;5.530;2023-04-23T11:22:11;100362.50;;;19.42;45.48
59789;BME280;47353;51.614;5.530;2023-04-23T11:24:38;100370.69;;;19.14;45.81
59789;BME280;47353;51.614;5.530;2023-04-23T11:27:12;100364.25;;;18.81;46.46
59789;BME280;47353;51.614;5.530;2023-04-23T11:29:39;100352.13;;;18.69;47.89
59789;BME280;47353;51.614;5.530;2023-04-23T11:32:05;100352.81;;;18.66;47.26
59789;BME280;47353;51.614;5.530;2023-04-23T11:34:46;100347.69;;;18.68;48.08
59789;BME280;47353;51.614;5.530;2023-04-23T11:37:13;100340.44;;;18.67;47.52
59789;BME280;47353;51.614;5.530;2023-04-23T11:39:40;100342.34;;;18.54;47.83
59789;BME280;47353;51.614;5.530;2023-04-23T11:42:12;100333.00;;;18.50;48.48
59789;BME280;47353;51.614;5.530;2023-04-23T11:44:41;100326.50;;;18.38;48.48
59789;BME280;47353;51.614;5.530;2023-04-23T11:47:08;100325.63;;;18.37;48.77
59789;BME280;47353;51.614;5.530;2023-04-23T11:49:36;100322.84;;;18.37;50.35
59789;BME280;47353;51.614;5.530;2023-04-23T11:52:02;100323.06;;;18.32;49.11
59789;BME280;47353;51.614;5.530;2023-04-23T11:54:28;100305.47;;;18.52;50.46
59789;BME280;47353;51.614;5.530;2023-04-23T11:56:54;100305.81;;;19.16;48.81
59789;BME280;47353;51.614;5.530;2023-04-23T11:59:21;100318.56;;;19.25;46.93
59789;BME280;47353;51.614;5.530;2023-04-23T12:01:52;100313.81;;;18.93;46.06
59789;BME280;47353;51.614;5.530;2023-04-23T12:04:19;100308.34;;;18.97;45.77
59789;BME280;47353;51.614;5.530;2023-04-23T12:06:46;100302.13;;;19.03;45.67
59789;BME280;47353;51.614;5.530;2023-04-23T12:09:13;100295.38;;;19.37;45.69
59789;BME280;47353;51.614;5.530;2023-04-23T12:11:42;100303.59;;;19.66;43.51
59789;BME280;47353;51.614;5.530;2023-04-23T12:14:09;100290.00;;;20.04;43.95
59789;BME280;47353;51.614;5.530;2023-04-23T12:16:38;100276.06;;;20.59;40.92
59789;BME280;47353;51.614;5.530;2023-04-23T12:19:07;100265.44;;;21.08;40.31
59789;BME280;47353;51.614;5.530;2023-04-23T12:21:32;100269.44;;;20.95;40.43
59789;BME280;47353;51.614;5.530;2023-04-23T12:23:58;100262.81;;;21.46;40.66
59789;BME280;47353;51.614;5.530;2023-04-23T12:26:25;100263.53;;;21.74;37.90
59789;BME280;47353;51.614;5.530;2023-04-23T12:28:55;100266.81;;;21.29;39.48
59789;BME280;47353;51.614;5.530;2023-04-23T12:31:27;100259.84;;;20.41;39.93
59789;BME280;47353;51.614;5.530;2023-04-23T12:34:06;100264.13;;;20.11;41.57
59789;BME280;47353;51.614;5.530;2023-04-23T12:36:32;100255.00;;;19.77;43.15
59789;BME280;47353;51.614;5.530;2023-04-23T12:41:58;100243.31;;;19.27;44.18
59789;BME280;47353;51.614;5.530;2023-04-23T12:44:29;100232.28;;;19.10;44.02
59789;BME280;47353;51.614;5.530;2023-04-23T12:47:08;100229.28;;;19.39;43.46
59789;BME280;47353;51.614;5.530;2023-04-23T12:49:37;100222.31;;;19.13;44.25
59789;BME280;47353;51.614;5.530;2023-04-23T12:52:03;100227.25;;;19.16;45.12
59789;BME280;47353;51.614;5.530;2023-04-23T12:54:31;100211.28;;;18.84;45.44